TimeCST,TemperatureF,Dew PointF,Humidity,Sea Level PressureIn,VisibilityMPH,Wind Direction,Wind SpeedMPH,Gust SpeedMPH,PrecipitationIn,Events,Conditions,WindDirDegrees,DateUTC
12:53 AM,35.1,18.0,50,30.09,10.0,East,5.8,-,N/A,,Partly Cloudy,80,2013-02-19 06:53:00
1:53 AM,35.1,18.0,50,30.10,10.0,East,4.6,-,N/A,,Mostly Cloudy,90,2013-02-19 07:53:00
2:53 AM,34.0,18.0,52,30.11,10.0,ESE,5.8,-,N/A,,Mostly Cloudy,120,2013-02-19 08:53:00
3:53 AM,35.1,17.1,48,30.11,10.0,ESE,4.6,-,N/A,,Scattered Clouds,110,2013-02-19 09:53:00
4:53 AM,35.1,19.0,52,30.14,10.0,SE,3.5,-,N/A,,Scattered Clouds,140,2013-02-19 10:53:00
5:53 AM,32.0,18.0,56,30.16,10.0,ESE,5.8,-,N/A,,Partly Cloudy,110,2013-02-19 11:53:00
6:53 AM,30.9,19.0,61,30.17,10.0,ESE,5.8,-,N/A,,Mostly Cloudy,120,2013-02-19 12:53:00
7:53 AM,30.0,19.0,64,30.19,10.0,ESE,8.1,-,N/A,,Scattered Clouds,110,2013-02-19 13:53:00
8:53 AM,37.0,21.0,52,30.19,10.0,SE,8.1,-,N/A,,Scattered Clouds,130,2013-02-19 14:53:00
9:53 AM,43.0,21.0,42,30.20,10.0,SE,20.7,-,N/A,,Mostly Cloudy,140,2013-02-19 15:53:00
10:53 AM,46.4,19.4,34,30.19,10.0,SE,17.3,-,N/A,,Mostly Cloudy,130,2013-02-19 16:53:00
12:53 PM,53.1,17.1,24,30.11,10.0,SE,21.9,-,N/A,,Mostly Cloudy,130,2013-02-19 18:53:00
1:53 PM,54.0,16.0,22,30.06,10.0,SE,23.0,29.9,N/A,,Mostly Cloudy,130,2013-02-19 19:53:00
2:53 PM,54.0,16.0,22,30.01,10.0,SE,23.0,28.8,N/A,,Mostly Cloudy,130,2013-02-19 20:53:00
3:53 PM,53.1,15.1,22,30.00,10.0,SE,21.9,28.8,N/A,,Overcast,140,2013-02-19 21:53:00
4:53 PM,53.1,16.0,23,29.99,10.0,SE,21.9,31.1,N/A,,Overcast,140,2013-02-19 22:53:00
6:53 PM,51.1,19.0,28,30.01,10.0,SSE,16.1,-,N/A,,Overcast,160,2013-02-20 00:53:00
7:53 PM,48.9,23.0,36,30.03,10.0,SSE,20.7,-,0.00,Rain,Light Rain,160,2013-02-20 01:53:00
8:53 PM,45.0,32.0,60,30.03,10.0,SSE,16.1,-,0.00,,Overcast,160,2013-02-20 02:53:00
9:53 PM,43.0,37.9,82,30.01,10.0,South,17.3,-,0.00,Rain,Light Rain,170,2013-02-20 03:53:00
10:53 PM,41.0,39.0,93,30.00,10.0,SSE,17.3,-,0.02,Rain,Light Rain,160,2013-02-20 04:53:00
10:58 PM,41.0,39.2,93,30.02,10.0,SSE,18.4,-,0.00,Rain,Light Rain,150,2013-02-20 04:58:00
11:20 PM,41.0,39.2,93,30.01,8.0,SSE,19.6,-,0.00,Rain,Light Rain,160,2013-02-20 05:20:00
11:30 PM,41.0,39.2,93,30.00,6.0,SSE,24.2,-,0.00,Rain,Light Rain,150,2013-02-20 05:30:00
11:35 PM,41.0,39.2,93,30.00,6.0,SSE,21.9,-,0.00,Rain,Light Rain,150,2013-02-20 05:35:00
11:53 PM,41.0,39.9,96,29.97,5.0,SSE,21.9,-,0.02,Rain,Light Rain,160,2013-02-20 05:53:00